createdAt,value
2018-08-22T00:01:14.599Z,3.70
2018-08-22T00:03:43.010Z,2.60
2018-08-22T00:06:11.467Z,2.87
2018-08-22T00:08:42.828Z,3.13
2018-08-22T00:11:12.596Z,2.60
2018-08-22T00:13:41.386Z,1.93
2018-08-22T00:16:09.812Z,2.37
2018-08-22T00:18:38.527Z,2.60
2018-08-22T00:21:06.906Z,2.73
2018-08-22T00:23:35.349Z,2.90
2018-08-22T00:26:03.924Z,2.40
2018-08-22T00:28:32.373Z,2.50
2018-08-22T00:31:00.836Z,2.90
2018-08-22T00:33:29.451Z,3.23
2018-08-22T00:35:57.918Z,2.33
2018-08-22T00:38:26.324Z,2.60
2018-08-22T00:40:54.871Z,2.17
2018-08-22T00:43:23.279Z,2.50
2018-08-22T00:45:51.700Z,2.60
2018-08-22T00:48:20.495Z,2.13
2018-08-22T00:50:48.932Z,2.47
2018-08-22T00:53:17.410Z,3.13
2018-08-22T00:55:46.078Z,3.10
2018-08-22T00:58:14.485Z,2.57
2018-08-22T01:00:42.942Z,2.70
2018-08-22T01:03:11.394Z,3.17
2018-08-22T01:05:39.838Z,3.10
2018-08-22T01:08:08.288Z,2.80
2018-08-22T01:10:36.706Z,2.70
2018-08-22T01:13:05.215Z,2.40
2018-08-22T01:15:33.754Z,2.70
2018-08-22T01:18:02.430Z,3.47
2018-08-22T01:20:30.967Z,2.80
2018-08-22T01:22:59.364Z,3.12
2018-08-22T01:25:27.860Z,2.90
2018-08-22T01:27:56.306Z,3.03
2018-08-22T01:30:25.001Z,2.98
2018-08-22T01:32:53.440Z,2.57
2018-08-22T01:35:21.887Z,3.50
2018-08-22T01:37:50.440Z,3.50
2018-08-22T01:40:18.865Z,2.90
2018-08-22T01:42:47.551Z,3.20
2018-08-22T01:45:16.048Z,2.83
2018-08-22T01:47:44.623Z,2.85
2018-08-22T01:50:13.048Z,3.10
2018-08-22T01:52:41.575Z,3.52
2018-08-22T01:55:10.365Z,2.83
2018-08-22T01:57:38.756Z,2.67
2018-08-22T02:00:07.782Z,3.43
2018-08-22T02:02:36.375Z,3.15
2018-08-22T02:05:05.338Z,3.03
2018-08-22T02:07:34.120Z,2.83
2018-08-22T02:10:02.763Z,2.93
2018-08-22T02:12:31.234Z,2.87
2018-08-22T02:14:59.756Z,2.50
2018-08-22T02:17:28.795Z,2.27
2018-08-22T02:19:57.230Z,3.73
2018-08-22T02:22:25.652Z,3.13
2018-08-22T02:24:54.073Z,3.70
2018-08-22T02:27:22.518Z,3.10
2018-08-22T02:29:51.204Z,2.60
2018-08-22T02:32:19.650Z,3.00
2018-08-22T02:34:48.064Z,3.30
2018-08-22T02:37:17.427Z,3.30
2018-08-22T02:39:45.859Z,3.00
2018-08-22T02:42:14.659Z,3.40
2018-08-22T02:44:43.104Z,3.67
2018-08-22T02:47:11.803Z,3.70
2018-08-22T02:49:40.258Z,3.90
2018-08-22T02:52:08.711Z,3.20
2018-08-22T02:54:37.327Z,3.58
2018-08-22T02:57:05.764Z,3.40
2018-08-22T02:59:34.202Z,3.33
2018-08-22T03:02:02.643Z,2.33
2018-08-22T03:04:31.329Z,3.40
2018-08-22T03:06:59.877Z,3.67
2018-08-22T03:09:28.305Z,3.23
2018-08-22T03:11:56.756Z,3.80
2018-08-22T03:14:25.211Z,2.87
2018-08-22T03:16:53.629Z,2.72
2018-08-22T03:19:22.080Z,3.07
2018-08-22T03:21:50.748Z,2.92
2018-08-22T03:24:19.292Z,2.87
2018-08-22T03:26:47.821Z,2.87
2018-08-22T03:29:16.247Z,3.50
2018-08-22T03:31:44.672Z,9.50
2018-08-22T03:34:13.163Z,3.67
2018-08-22T03:36:41.584Z,3.57
2018-08-22T03:39:10.278Z,3.97
2018-08-22T03:41:39.457Z,3.62
2018-08-22T03:44:07.941Z,3.00
2018-08-22T03:46:36.372Z,3.20
2018-08-22T03:49:04.801Z,3.70
2018-08-22T03:51:33.212Z,3.83
2018-08-22T03:54:01.668Z,2.80
2018-08-22T03:56:30.532Z,3.57
2018-08-22T03:58:58.965Z,3.05
2018-08-22T04:01:27.419Z,3.27
2018-08-22T04:03:56.200Z,3.80
2018-08-22T04:06:24.664Z,3.22
2018-08-22T04:08:53.941Z,3.80
2018-08-22T04:11:22.325Z,2.87
2018-08-22T04:13:50.824Z,3.57
2018-08-22T04:16:19.253Z,3.20
2018-08-22T04:18:47.687Z,3.50
2018-08-22T04:21:16.126Z,3.90
2018-08-22T04:23:44.628Z,3.37
2018-08-22T04:26:13.063Z,2.73
2018-08-22T04:28:41.492Z,2.33
2018-08-22T04:31:09.939Z,3.30
2018-08-22T04:33:38.339Z,4.10
2018-08-22T04:36:06.789Z,4.03
2018-08-22T04:38:35.471Z,3.10
2018-08-22T04:41:03.873Z,3.47
2018-08-22T04:43:32.334Z,4.17
2018-08-22T04:46:00.740Z,3.10
2018-08-22T04:48:29.186Z,3.47
2018-08-22T04:50:57.656Z,6.00
2018-08-22T04:53:26.338Z,5.90
2018-08-22T04:55:55.095Z,3.77
2018-08-22T04:58:23.516Z,2.70
2018-08-22T05:00:51.959Z,3.67
2018-08-22T05:03:20.392Z,3.20
2018-08-22T05:05:48.811Z,3.63
2018-08-22T05:08:17.208Z,3.60
2018-08-22T05:10:45.666Z,4.20
2018-08-22T05:13:14.411Z,3.58
2018-08-22T05:15:42.907Z,3.50
2018-08-22T05:18:11.728Z,3.70
2018-08-22T05:20:40.188Z,3.70
2018-08-22T05:23:08.772Z,2.50
2018-08-22T05:25:37.203Z,3.20
2018-08-22T05:28:05.770Z,3.30
2018-08-22T05:30:34.239Z,3.40
2018-08-22T05:33:02.674Z,3.00
2018-08-22T05:35:31.157Z,3.47
2018-08-22T05:37:59.575Z,3.10
2018-08-22T05:40:58.810Z,3.13
2018-08-22T05:43:27.523Z,3.63
2018-08-22T05:45:55.952Z,2.70
2018-08-22T05:48:24.518Z,2.50
2018-08-22T05:50:52.949Z,3.30
2018-08-22T05:53:21.378Z,2.83
2018-08-22T05:55:50.061Z,3.37
2018-08-22T05:58:18.564Z,3.20
2018-08-22T06:00:46.970Z,4.10
2018-08-22T06:03:15.774Z,3.20
2018-08-22T06:05:44.302Z,3.17
2018-08-22T06:08:12.877Z,2.62
2018-08-22T06:10:41.324Z,3.47
2018-08-22T06:13:09.956Z,3.30
2018-08-22T06:15:38.439Z,3.03
2018-08-22T06:18:06.859Z,3.37
2018-08-22T06:20:35.281Z,3.00
2018-08-22T06:23:03.828Z,3.77
2018-08-22T06:25:32.365Z,3.30
2018-08-22T06:28:00.767Z,2.37
2018-08-22T06:30:29.245Z,4.37
2018-08-22T06:32:57.664Z,3.97
2018-08-22T06:35:26.128Z,3.33
2018-08-22T06:37:54.596Z,2.30
2018-08-22T06:40:23.016Z,3.07
2018-08-22T06:42:51.440Z,3.40
2018-08-22T06:45:19.944Z,2.97
2018-08-22T06:47:48.334Z,2.27
2018-08-22T06:50:16.790Z,2.40
2018-08-22T06:52:45.538Z,2.57
2018-08-22T06:55:14.312Z,2.50
2018-08-22T06:57:42.819Z,3.30
2018-08-22T07:00:11.528Z,3.75
2018-08-22T07:02:40.051Z,3.47
2018-08-22T07:05:08.522Z,3.07
2018-08-22T07:07:36.973Z,3.50
2018-08-22T07:10:05.814Z,2.87
2018-08-22T07:12:34.252Z,2.83
2018-08-22T07:15:02.676Z,2.90
2018-08-22T07:17:31.127Z,3.08
2018-08-22T07:19:59.585Z,3.27
2018-08-22T07:22:28.005Z,3.27
2018-08-22T07:24:56.455Z,3.10
2018-08-22T07:27:24.864Z,3.13
2018-08-22T07:29:53.642Z,2.97
2018-08-22T07:32:22.090Z,3.12
2018-08-22T07:34:50.518Z,2.87
2018-08-22T07:37:19.428Z,3.00
2018-08-22T07:39:47.876Z,2.90
2018-08-22T07:42:16.323Z,2.63
2018-08-22T07:44:44.759Z,2.93
2018-08-22T07:47:13.238Z,3.77
2018-08-22T07:49:41.617Z,2.60
2018-08-22T07:52:10.179Z,2.73
2018-08-22T07:54:45.819Z,3.10
2018-08-22T07:57:15.715Z,2.72
2018-08-22T07:59:44.216Z,3.33
2018-08-22T08:02:12.851Z,2.37
2018-08-22T08:04:41.246Z,3.37
2018-08-22T08:07:09.939Z,2.83
2018-08-22T08:09:38.364Z,3.43
2018-08-22T08:12:06.829Z,2.67
2018-08-22T08:14:35.251Z,3.40
2018-08-22T08:17:03.661Z,2.63
2018-08-22T08:19:32.120Z,3.00
2018-08-22T08:22:00.526Z,3.50
2018-08-22T08:24:28.955Z,2.83
2018-08-22T08:26:57.427Z,2.45
2018-08-22T08:29:25.907Z,3.47
2018-08-22T08:31:54.345Z,4.17
2018-08-22T08:34:23.076Z,4.00
2018-08-22T08:36:51.506Z,2.50
2018-08-22T08:39:20.004Z,2.63
2018-08-22T08:41:48.540Z,3.30
2018-08-22T08:44:16.910Z,3.13
2018-08-22T08:46:45.605Z,2.97
2018-08-22T08:49:14.022Z,3.07
2018-08-22T08:51:54.051Z,2.93
2018-08-22T08:54:23.444Z,2.93
2018-08-22T08:56:52.152Z,2.70
2018-08-22T08:59:20.610Z,2.53
2018-08-22T09:01:49.000Z,3.27
2018-08-22T09:04:18.391Z,2.92
2018-08-22T09:06:47.433Z,3.87
2018-08-22T09:09:15.870Z,3.00
2018-08-22T09:11:49.080Z,3.20
2018-08-22T09:14:17.523Z,2.90
2018-08-22T09:16:45.942Z,3.53
2018-08-22T09:19:20.744Z,3.10
2018-08-22T09:21:49.435Z,3.20
2018-08-22T09:24:17.958Z,2.90
2018-08-22T09:26:46.420Z,2.70
2018-08-22T09:29:14.842Z,2.50
2018-08-22T09:31:43.288Z,3.43
2018-08-22T09:34:11.743Z,3.40
2018-08-22T09:36:40.144Z,3.10
2018-08-22T09:39:12.561Z,3.80
2018-08-22T09:41:41.260Z,3.77
2018-08-22T09:44:09.912Z,2.70
2018-08-22T09:46:39.636Z,2.67
2018-08-22T09:49:08.512Z,3.57
2018-08-22T09:51:36.973Z,3.47
2018-08-22T09:54:05.693Z,3.87
2018-08-22T09:56:34.175Z,3.50
2018-08-22T09:59:02.593Z,3.80
2018-08-22T10:01:36.182Z,3.43
2018-08-22T10:04:04.650Z,3.50
2018-08-22T10:06:38.868Z,4.00
2018-08-22T10:09:09.231Z,4.70
2018-08-22T10:11:37.895Z,3.70
2018-08-22T10:14:06.406Z,4.13
2018-08-22T10:16:34.811Z,4.10
2018-08-22T10:19:03.255Z,4.00
2018-08-22T10:21:31.696Z,4.10
2018-08-22T10:24:00.421Z,4.20
2018-08-22T10:26:29.021Z,4.20
2018-08-22T10:28:57.511Z,4.33
2018-08-22T10:31:26.417Z,5.05
2018-08-22T10:33:55.280Z,4.13
2018-08-22T10:36:23.715Z,3.60
2018-08-22T10:38:52.132Z,4.63
2018-08-22T10:41:20.588Z,4.70
2018-08-22T10:43:49.040Z,4.30
2018-08-22T10:46:17.473Z,4.27
2018-08-22T10:48:45.958Z,4.15
2018-08-22T10:51:14.431Z,4.40
2018-08-22T10:53:42.848Z,4.97
2018-08-22T10:56:11.254Z,4.20
2018-08-22T10:58:39.710Z,4.40
2018-08-22T11:01:08.271Z,5.63
2018-08-22T11:03:36.668Z,5.03
2018-08-22T11:06:05.698Z,4.30
2018-08-22T11:08:34.333Z,3.83
2018-08-22T11:11:02.800Z,4.90
2018-08-22T11:13:31.633Z,4.50
2018-08-22T11:16:00.131Z,4.40
2018-08-22T11:18:28.543Z,4.50
2018-08-22T11:21:08.011Z,3.90
2018-08-22T11:23:47.641Z,4.17
2018-08-22T11:26:27.231Z,4.53
2018-08-22T11:29:06.901Z,4.17
2018-08-22T11:31:47.307Z,4.22
2018-08-22T11:34:27.006Z,4.97
2018-08-22T11:37:05.618Z,3.77
2018-08-22T11:39:34.256Z,4.05
2018-08-22T11:42:03.399Z,4.13
2018-08-22T11:44:31.901Z,4.47
2018-08-22T11:47:00.927Z,4.50
2018-08-22T11:49:30.075Z,4.03
2018-08-22T11:51:59.120Z,3.90
2018-08-22T11:54:27.763Z,4.80
2018-08-22T11:56:56.178Z,3.92
2018-08-22T11:59:24.624Z,4.50
2018-08-22T12:01:53.314Z,3.77
2018-08-22T12:04:21.939Z,4.25
2018-08-22T12:06:50.929Z,4.22
2018-08-22T12:09:19.393Z,3.90
2018-08-22T12:11:47.875Z,4.80
2018-08-22T12:14:16.333Z,5.27
2018-08-22T12:16:44.753Z,4.43
2018-08-22T12:19:13.222Z,3.97
2018-08-22T12:21:42.438Z,4.03
2018-08-22T12:24:10.903Z,3.83
2018-08-22T12:26:39.335Z,3.77
2018-08-22T12:29:07.775Z,3.07
2018-08-22T12:31:36.254Z,3.20
2018-08-22T12:34:04.751Z,3.80
2018-08-22T12:36:33.176Z,3.70
2018-08-22T12:39:01.786Z,3.90
2018-08-22T12:41:30.498Z,3.60
2018-08-22T12:43:58.887Z,3.37
2018-08-22T12:46:27.362Z,3.90
2018-08-22T12:48:55.787Z,4.40
2018-08-22T12:51:24.245Z,3.93
2018-08-22T12:53:52.667Z,3.72
2018-08-22T12:56:21.092Z,3.63
2018-08-22T12:58:49.505Z,3.77
2018-08-22T13:01:17.956Z,4.43
2018-08-22T13:03:47.208Z,3.77
2018-08-22T13:06:15.651Z,3.87
2018-08-22T13:08:44.067Z,3.20
2018-08-22T13:11:12.550Z,2.87
2018-08-22T13:13:40.903Z,3.57
2018-08-22T13:16:09.329Z,3.23
2018-08-22T13:18:37.740Z,3.80
2018-08-22T13:21:06.151Z,3.20
2018-08-22T13:23:34.788Z,3.67
2018-08-22T13:26:03.213Z,3.65
2018-08-22T13:28:31.611Z,3.20
2018-08-22T13:30:59.995Z,3.53
2018-08-22T13:33:28.427Z,3.50
2018-08-22T13:35:56.831Z,3.37
2018-08-22T13:38:25.255Z,3.35
2018-08-22T13:40:53.747Z,3.30
2018-08-22T13:43:22.164Z,3.53
2018-08-22T13:45:50.595Z,3.60
2018-08-22T13:48:19.025Z,3.43
2018-08-22T13:50:47.487Z,3.03
2018-08-22T13:53:15.984Z,3.80
2018-08-22T13:55:44.443Z,4.30
2018-08-22T13:58:13.031Z,2.70
2018-08-22T14:00:41.456Z,3.33
2018-08-22T14:03:09.917Z,3.07
2018-08-22T14:05:38.857Z,3.17
2018-08-22T14:08:07.291Z,3.72
2018-08-22T14:10:36.079Z,3.67
2018-08-22T14:13:04.547Z,4.03
2018-08-22T14:15:33.004Z,3.60
2018-08-22T14:18:01.412Z,3.00
2018-08-22T14:20:30.030Z,4.00
2018-08-22T14:22:58.545Z,3.63
2018-08-22T14:25:27.282Z,3.53
2018-08-22T14:27:55.940Z,3.70
2018-08-22T14:30:24.383Z,3.53
2018-08-22T14:32:53.044Z,3.50
2018-08-22T14:35:21.480Z,3.97
2018-08-22T14:37:49.896Z,3.77
2018-08-22T14:40:18.348Z,4.03
2018-08-22T14:42:46.778Z,3.97
2018-08-22T14:45:15.219Z,3.60
2018-08-22T14:47:43.621Z,3.20
2018-08-22T14:50:12.071Z,3.80
2018-08-22T14:52:40.678Z,3.90
2018-08-22T14:55:09.167Z,4.10
2018-08-22T14:57:37.588Z,3.83
2018-08-22T15:00:06.433Z,3.93
2018-08-22T15:02:35.136Z,4.33
2018-08-22T15:05:03.457Z,3.33
2018-08-22T15:07:31.895Z,3.80
2018-08-22T15:10:00.529Z,3.80
2018-08-22T15:12:28.959Z,3.13
2018-08-22T15:14:57.514Z,3.10
2018-08-22T15:17:25.928Z,3.75
2018-08-22T15:19:54.319Z,3.80
2018-08-22T15:22:22.991Z,3.93
2018-08-22T15:24:51.669Z,3.67
2018-08-22T15:27:20.097Z,3.10
2018-08-22T15:29:48.605Z,3.97
2018-08-22T15:32:17.004Z,3.70
2018-08-22T15:34:49.458Z,3.93
2018-08-22T15:37:18.185Z,4.17
2018-08-22T15:39:46.573Z,3.97
2018-08-22T15:42:14.979Z,3.77
2018-08-22T15:44:43.456Z,4.00
2018-08-22T15:47:12.625Z,4.70
2018-08-22T15:49:41.223Z,4.30
2018-08-22T15:52:10.001Z,3.40
2018-08-22T15:54:38.408Z,3.53
2018-08-22T15:57:07.057Z,3.50
2018-08-22T15:59:35.471Z,4.03
2018-08-22T16:02:03.896Z,4.17
2018-08-22T16:04:45.343Z,3.97
2018-08-22T16:07:13.765Z,3.12
2018-08-22T16:09:42.684Z,3.90
2018-08-22T16:12:11.136Z,3.60
2018-08-22T16:14:39.661Z,3.33
2018-08-22T16:17:08.025Z,4.30
2018-08-22T16:19:36.450Z,3.80
2018-08-22T16:22:05.474Z,3.27
2018-08-22T16:24:34.055Z,3.63
2018-08-22T16:27:02.487Z,4.80
2018-08-22T16:29:30.935Z,3.60
2018-08-22T16:31:59.517Z,3.60
2018-08-22T16:34:27.963Z,3.03
2018-08-22T16:36:56.557Z,3.53
2018-08-22T16:39:38.159Z,3.67
2018-08-22T16:42:07.440Z,3.50
2018-08-22T16:44:36.113Z,4.07
2018-08-22T16:47:04.810Z,3.57
2018-08-22T16:49:33.351Z,3.90
2018-08-22T16:52:01.736Z,4.30
2018-08-22T16:54:30.176Z,3.83
2018-08-22T16:56:58.564Z,3.43
2018-08-22T16:59:27.026Z,3.73
2018-08-22T17:01:55.798Z,4.17
2018-08-22T17:04:24.232Z,4.03
2018-08-22T17:06:52.737Z,4.00
2018-08-22T17:09:21.140Z,3.40
2018-08-22T17:11:49.876Z,3.63
2018-08-22T17:14:18.305Z,4.63
2018-08-22T17:16:46.948Z,4.10
2018-08-22T17:19:15.382Z,3.77
2018-08-22T17:21:43.851Z,3.87
2018-08-22T17:24:12.552Z,3.77
2018-08-22T17:26:40.987Z,4.70
2018-08-22T17:29:09.403Z,4.73
2018-08-22T17:31:38.413Z,5.30
2018-08-22T17:34:07.023Z,5.30
2018-08-22T17:36:35.436Z,4.67
2018-08-22T17:39:04.329Z,4.90
2018-08-22T17:41:32.824Z,4.87
2018-08-22T17:44:12.349Z,32.37
2018-08-22T17:46:48.675Z,18.80
2018-08-22T17:49:17.567Z,4.53
2018-08-22T17:52:05.387Z,5.30
2018-08-22T17:54:34.040Z,4.10
2018-08-22T17:57:12.553Z,4.90
2018-08-22T17:59:42.011Z,5.27
2018-08-22T18:02:10.424Z,4.35
2018-08-22T18:04:50.211Z,4.40
2018-08-22T18:07:18.639Z,4.80
2018-08-22T18:09:48.627Z,4.85
2018-08-22T18:12:17.860Z,4.90
2018-08-22T18:14:46.780Z,8.10
2018-08-22T18:17:15.332Z,7.97
2018-08-22T18:19:43.909Z,5.87
2018-08-22T18:22:12.376Z,5.67
2018-08-22T18:24:46.115Z,5.90
2018-08-22T18:27:16.353Z,6.87
2018-08-22T18:29:46.235Z,5.50
2018-08-22T18:32:15.214Z,5.13
2018-08-22T18:34:58.642Z,5.78
2018-08-22T18:37:28.815Z,6.30
2018-08-22T18:40:10.168Z,5.50
2018-08-22T18:42:39.393Z,5.62
2018-08-22T18:45:08.567Z,5.60
2018-08-22T18:47:37.668Z,6.20
2018-08-22T18:50:06.577Z,5.53
2018-08-22T18:52:35.030Z,5.37
2018-08-22T18:55:03.769Z,5.83
2018-08-22T18:57:32.501Z,11.03
2018-08-22T19:00:04.436Z,8.35
2018-08-22T19:02:33.334Z,7.73
2018-08-22T19:05:17.271Z,9.57
2018-08-22T19:07:58.032Z,7.60
2018-08-22T19:10:57.590Z,6.80
2018-08-22T19:13:26.925Z,7.35
2018-08-22T19:16:01.438Z,8.53
2018-08-22T19:18:30.205Z,6.50
2018-08-22T19:21:00.693Z,6.27
2018-08-22T19:23:29.679Z,7.05
2018-08-22T19:25:59.055Z,6.00
2018-08-22T19:28:27.807Z,7.00
2018-08-22T19:30:56.255Z,6.60
2018-08-22T19:33:27.193Z,5.70
2018-08-22T19:35:56.098Z,6.33
2018-08-22T19:38:27.980Z,5.50
2018-08-22T19:40:57.603Z,6.20
2018-08-22T19:43:26.416Z,5.60
2018-08-22T19:45:54.804Z,5.95
2018-08-22T19:48:25.044Z,8.40
2018-08-22T19:50:53.859Z,6.45
2018-08-22T19:53:22.304Z,6.27
2018-08-22T19:55:50.747Z,5.33
2018-08-22T19:58:28.347Z,12.03
2018-08-22T20:00:58.280Z,7.77
2018-08-22T20:03:31.035Z,5.97
2018-08-22T20:05:59.471Z,5.53
2018-08-22T20:08:42.243Z,6.53
2018-08-22T20:11:11.071Z,6.55
2018-08-22T20:13:53.048Z,6.70
2018-08-22T20:16:22.496Z,7.93
2018-08-22T20:18:53.836Z,10.37
2018-08-22T20:21:27.627Z,6.43
2018-08-22T20:23:56.544Z,6.40
2018-08-22T20:26:25.788Z,6.07
2018-08-22T20:28:55.963Z,6.42
2018-08-22T20:31:24.784Z,6.30
2018-08-22T20:34:00.552Z,6.33
2018-08-22T20:36:29.352Z,8.47
2018-08-22T20:39:00.064Z,9.73
2018-08-22T20:41:28.488Z,8.23
2018-08-22T20:43:57.206Z,8.20
2018-08-22T20:46:25.632Z,6.30
2018-08-22T20:48:55.027Z,6.67
2018-08-22T20:51:23.628Z,6.70
2018-08-22T20:54:02.161Z,6.10
2018-08-22T20:56:31.639Z,6.10
2018-08-22T20:59:00.064Z,5.23
2018-08-22T21:01:28.780Z,6.50
2018-08-22T21:03:57.192Z,7.03
2018-08-22T21:06:25.605Z,7.43
2018-08-22T21:08:54.072Z,6.13
2018-08-22T21:11:22.548Z,7.20
2018-08-22T21:13:50.981Z,5.90
2018-08-22T21:16:19.380Z,6.20
2018-08-22T21:18:47.808Z,5.50
2018-08-22T21:21:21.363Z,6.00
2018-08-22T21:23:49.994Z,5.72
2018-08-22T21:26:32.788Z,5.20
2018-08-22T21:29:01.254Z,6.20
2018-08-22T21:31:29.716Z,5.83
2018-08-22T21:33:58.243Z,5.50
2018-08-22T21:36:27.135Z,6.00
2018-08-22T21:38:55.580Z,4.83
2018-08-22T21:41:24.066Z,5.60
2018-08-22T21:43:52.745Z,5.07
2018-08-22T21:46:21.192Z,5.22
2018-08-22T21:48:50.045Z,6.45
2018-08-22T21:51:20.377Z,4.70
2018-08-22T21:53:48.787Z,5.27
2018-08-22T21:56:17.345Z,5.33
2018-08-22T21:58:45.839Z,5.27
2018-08-22T22:01:14.284Z,5.10
2018-08-22T22:03:42.738Z,4.90
2018-08-22T22:06:11.139Z,4.77
2018-08-22T22:08:46.727Z,4.83
2018-08-22T22:11:15.151Z,4.30
2018-08-22T22:13:43.956Z,5.73
2018-08-22T22:16:12.417Z,5.27
2018-08-22T22:18:40.811Z,6.33
2018-08-22T22:21:12.365Z,6.10
2018-08-22T22:23:47.307Z,5.03
2018-08-22T22:26:17.325Z,5.10
2018-08-22T22:28:45.742Z,6.07
2018-08-22T22:31:16.264Z,4.70
2018-08-22T22:33:48.692Z,4.80
2018-08-22T22:36:17.172Z,4.57
2018-08-22T22:38:45.754Z,5.23
2018-08-22T22:41:14.369Z,4.80
2018-08-22T22:43:42.830Z,5.30
2018-08-22T22:46:11.499Z,4.85
2018-08-22T22:48:41.490Z,5.37
2018-08-22T22:51:10.652Z,5.70
2018-08-22T22:53:39.143Z,5.70
2018-08-22T22:56:08.010Z,5.10
2018-08-22T22:58:37.343Z,5.57
2018-08-22T23:01:06.937Z,6.30
2018-08-22T23:03:35.445Z,5.00
2018-08-22T23:06:03.957Z,5.70
2018-08-22T23:08:32.396Z,5.70
2018-08-22T23:11:01.133Z,5.17
2018-08-22T23:13:30.253Z,6.33
2018-08-22T23:15:58.700Z,5.90
2018-08-22T23:18:27.271Z,5.83
2018-08-22T23:20:55.706Z,5.90
2018-08-22T23:23:33.311Z,5.40
2018-08-22T23:26:09.376Z,6.07
2018-08-22T23:28:37.860Z,6.37
2018-08-22T23:31:06.299Z,5.90
2018-08-22T23:33:34.765Z,5.17
2018-08-22T23:36:03.232Z,5.53
2018-08-22T23:38:33.100Z,5.70
2018-08-22T23:41:02.256Z,5.57
2018-08-22T23:44:06.112Z,5.50
2018-08-22T23:46:34.620Z,6.07
2018-08-22T23:49:03.102Z,5.73
2018-08-22T23:51:31.571Z,5.70
2018-08-22T23:54:00.875Z,5.70
2018-08-22T23:56:30.356Z,5.60
2018-08-22T23:58:59.328Z,5.83
